sensor_id;sensor_type;location;lat;lon;timestamp;pressure;altitude;pressure_sealevel;temperature;humidity
28310;BME280;15571;50.974;13.936;2022-08-01T00:00:09;99840.22;;;23.02;100.00
28310;BME280;15571;50.974;13.936;2022-08-01T00:03:12;99847.66;;;22.97;100.00
28310;BME280;15571;50.974;13.936;2022-08-01T00:06:16;99840.78;;;22.93;100.00
28310;BME280;15571;50.974;13.936;2022-08-01T00:09:20;99842.78;;;22.89;100.00
28310;BME280;15571;50.974;13.936;2022-08-01T00:12:23;99845.00;;;22.82;100.00
28310;BME280;15571;50.974;13.936;2022-08-01T00:15:26;99834.88;;;22.73;100.00
28310;BME280;15571;50.974;13.936;2022-08-01T00:18:29;99826.16;;;22.71;100.00
28310;BME280;15571;50.974;13.936;2022-08-01T00:21:48;99820.03;;;22.69;100.00
28310;BME280;15571;50.974;13.936;2022-08-01T00:24:51;99817.78;;;22.63;100.00
28310;BME280;15571;50.974;13.936;2022-08-01T00:27:54;99812.63;;;22.60;100.00
28310;BME280;15571;50.974;13.936;2022-08-01T00:30:57;99809.56;;;22.51;100.00
28310;BME280;15571;50.974;13.936;2022-08-01T00:33:59;99811.47;;;22.49;100.00
28310;BME280;15571;50.974;13.936;2022-08-01T00:37:03;99810.81;;;22.46;100.00
28310;BME280;15571;50.974;13.936;2022-08-01T00:40:07;99817.19;;;22.43;100.00
28310;BME280;15571;50.974;13.936;2022-08-01T00:43:10;99812.03;;;22.40;100.00
28310;BME280;15571;50.974;13.936;2022-08-01T00:46:13;99817.38;;;22.40;100.00
28310;BME280;15571;50.974;13.936;2022-08-01T00:49:15;99820.47;;;22.32;100.00
28310;BME280;15571;50.974;13.936;2022-08-01T00:52:20;99827.69;;;22.30;100.00
28310;BME280;15571;50.974;13.936;2022-08-01T00:55:23;99833.25;;;22.27;100.00
28310;BME280;15571;50.974;13.936;2022-08-01T00:58:26;99831.81;;;22.21;100.00
28310;BME280;15571;50.974;13.936;2022-08-01T01:01:35;99831.81;;;22.21;100.00
28310;BME280;15571;50.974;13.936;2022-08-01T01:09:49;99827.09;;;22.11;100.00
28310;BME280;15571;50.974;13.936;2022-08-01T01:17:36;99815.53;;;21.96;100.00
28310;BME280;15571;50.974;13.936;2022-08-01T01:20:43;99814.97;;;21.90;100.00
28310;BME280;15571;50.974;13.936;2022-08-01T01:24:10;99815.34;;;21.84;100.00
28310;BME280;15571;50.974;13.936;2022-08-01T01:27:23;99818.34;;;21.78;100.00
28310;BME280;15571;50.974;13.936;2022-08-01T01:30:33;99811.78;;;21.69;100.00
28310;BME280;15571;50.974;13.936;2022-08-01T01:33:37;99817.38;;;21.65;100.00
28310;BME280;15571;50.974;13.936;2022-08-01T01:36:44;99809.88;;;21.55;100.00
28310;BME280;15571;50.974;13.936;2022-08-01T01:39:49;99816.44;;;21.50;100.00
28310;BME280;15571;50.974;13.936;2022-08-01T01:42:56;99817.44;;;21.47;100.00
28310;BME280;15571;50.974;13.936;2022-08-01T01:46:02;99815.97;;;21.41;100.00
28310;BME280;15571;50.974;13.936;2022-08-01T01:49:08;99807.84;;;21.28;100.00
28310;BME280;15571;50.974;13.936;2022-08-01T01:52:12;99808.03;;;21.25;100.00
28310;BME280;15571;50.974;13.936;2022-08-01T01:55:18;99808.56;;;21.16;100.00
28310;BME280;15571;50.974;13.936;2022-08-01T01:58:23;99803.91;;;21.04;100.00
28310;BME280;15571;50.974;13.936;2022-08-01T02:01:31;99797.03;;;20.99;100.00
28310;BME280;15571;50.974;13.936;2022-08-01T02:04:40;99800.75;;;20.97;100.00
28310;BME280;15571;50.974;13.936;2022-08-01T02:07:44;99794.78;;;20.92;100.00
28310;BME280;15571;50.974;13.936;2022-08-01T02:10:50;99806.47;;;20.89;100.00
28310;BME280;15571;50.974;13.936;2022-08-01T02:14:09;99812.00;;;20.86;100.00
28310;BME280;15571;50.974;13.936;2022-08-01T02:17:17;99803.22;;;20.84;100.00
28310;BME280;15571;50.974;13.936;2022-08-01T02:20:21;99807.75;;;20.82;100.00
28310;BME280;15571;50.974;13.936;2022-08-01T02:23:32;99810.78;;;20.76;100.00
28310;BME280;15571;50.974;13.936;2022-08-01T02:26:44;99807.44;;;20.71;100.00
28310;BME280;15571;50.974;13.936;2022-08-01T02:29:53;99813.13;;;20.64;100.00
28310;BME280;15571;50.974;13.936;2022-08-01T02:33:03;99813.13;;;20.64;100.00
28310;BME280;15571;50.974;13.936;2022-08-01T02:36:11;99804.59;;;20.58;100.00
28310;BME280;15571;50.974;13.936;2022-08-01T02:39:18;99807.97;;;20.61;100.00
28310;BME280;15571;50.974;13.936;2022-08-01T02:42:23;99808.63;;;20.65;100.00
28310;BME280;15571;50.974;13.936;2022-08-01T02:45:33;99814.66;;;20.68;100.00
28310;BME280;15571;50.974;13.936;2022-08-01T02:48:43;99812.09;;;20.67;100.00
28310;BME280;15571;50.974;13.936;2022-08-01T02:51:48;99818.44;;;20.64;100.00
28310;BME280;15571;50.974;13.936;2022-08-01T02:54:56;99827.19;;;20.66;100.00
28310;BME280;15571;50.974;13.936;2022-08-01T02:58:00;99824.69;;;20.63;100.00
28310;BME280;15571;50.974;13.936;2022-08-01T03:01:04;99830.00;;;20.63;100.00
28310;BME280;15571;50.974;13.936;2022-08-01T03:04:14;99830.59;;;20.68;100.00
28310;BME280;15571;50.974;13.936;2022-08-01T03:07:21;99837.59;;;20.71;100.00
28310;BME280;15571;50.974;13.936;2022-08-01T03:10:26;99835.66;;;20.75;100.00
28310;BME280;15571;50.974;13.936;2022-08-01T03:13:33;99831.84;;;20.79;100.00
28310;BME280;15571;50.974;13.936;2022-08-01T03:16:40;99830.84;;;20.81;100.00
28310;BME280;15571;50.974;13.936;2022-08-01T03:20:18;99824.81;;;20.78;100.00
28310;BME280;15571;50.974;13.936;2022-08-01T03:23:27;99838.69;;;20.67;100.00
28310;BME280;15571;50.974;13.936;2022-08-01T03:26:33;99835.66;;;20.75;100.00
28310;BME280;15571;50.974;13.936;2022-08-01T03:29:37;99842.69;;;20.76;100.00
28310;BME280;15571;50.974;13.936;2022-08-01T03:32:41;99839.78;;;20.80;100.00
28310;BME280;15571;50.974;13.936;2022-08-01T03:35:52;99835.31;;;20.81;100.00
28310;BME280;15571;50.974;13.936;2022-08-01T03:39:09;99826.38;;;20.82;100.00
28310;BME280;15571;50.974;13.936;2022-08-01T03:42:19;99830.75;;;20.83;100.00
28310;BME280;15571;50.974;13.936;2022-08-01T03:45:25;99830.84;;;20.81;100.00
28310;BME280;15571;50.974;13.936;2022-08-01T03:48:32;99822.78;;;20.83;100.00
28310;BME280;15571;50.974;13.936;2022-08-01T03:51:44;99829.81;;;20.84;100.00
28310;BME280;15571;50.974;13.936;2022-08-01T03:54:52;99828.25;;;20.80;100.00
28310;BME280;15571;50.974;13.936;2022-08-01T03:58:03;99829.97;;;20.81;100.00
28310;BME280;15571;50.974;13.936;2022-08-01T04:01:09;99830.75;;;20.83;100.00
28310;BME280;15571;50.974;13.936;2022-08-01T04:04:13;99831.78;;;20.47;100.00
28310;BME280;15571;50.974;13.936;2022-08-01T04:07:24;99828.69;;;20.55;100.00
28310;BME280;15571;50.974;13.936;2022-08-01T04:10:27;99835.41;;;20.62;100.00
28310;BME280;15571;50.974;13.936;2022-08-01T04:13:33;99839.72;;;20.64;100.00
28310;BME280;15571;50.974;13.936;2022-08-01T04:16:38;99839.53;;;20.67;100.00
28310;BME280;15571;50.974;13.936;2022-08-01T04:19:41;99847.59;;;20.66;100.00
28310;BME280;15571;50.974;13.936;2022-08-01T04:22:48;99843.16;;;20.66;100.00
28310;BME280;15571;50.974;13.936;2022-08-01T04:26:02;99851.41;;;20.78;100.00
28310;BME280;15571;50.974;13.936;2022-08-01T04:29:13;99845.94;;;20.81;100.00
28310;BME280;15571;50.974;13.936;2022-08-01T04:32:18;99859.69;;;20.89;100.00
28310;BME280;15571;50.974;13.936;2022-08-01T04:35:39;99867.41;;;20.94;100.00
28310;BME280;15571;50.974;13.936;2022-08-01T04:38:46;99866.41;;;20.96;100.00
28310;BME280;15571;50.974;13.936;2022-08-01T04:41:52;99861.09;;;20.96;100.00
28310;BME280;15571;50.974;13.936;2022-08-01T04:44:57;99861.78;;;21.00;100.00
28310;BME280;15571;50.974;13.936;2022-08-01T04:48:00;99859.28;;;20.97;100.00
28310;BME280;15571;50.974;13.936;2022-08-01T04:51:03;99853.53;;;21.05;100.00
28310;BME280;15571;50.974;13.936;2022-08-01T04:54:09;99861.53;;;21.05;100.00
28310;BME280;15571;50.974;13.936;2022-08-01T04:57:12;99860.06;;;21.15;100.00
28310;BME280;15571;50.974;13.936;2022-08-01T05:00:18;99863.16;;;21.23;100.00
28310;BME280;15571;50.974;13.936;2022-08-01T05:03:21;99862.97;;;21.26;100.00
28310;BME280;15571;50.974;13.936;2022-08-01T05:06:26;99859.03;;;21.34;100.00
28310;BME280;15571;50.974;13.936;2022-08-01T05:09:31;99856.38;;;21.34;100.00
28310;BME280;15571;50.974;13.936;2022-08-01T05:12:34;99864.63;;;21.45;100.00
28310;BME280;15571;50.974;13.936;2022-08-01T05:15:37;99865.88;;;21.54;100.00
28310;BME280;15571;50.974;13.936;2022-08-01T05:18:42;99859.72;;;21.53;100.00
28310;BME280;15571;50.974;13.936;2022-08-01T05:21:45;99864.44;;;21.64;100.00
28310;BME280;15571;50.974;13.936;2022-08-01T05:24:49;99867.63;;;21.71;100.00
28310;BME280;15571;50.974;13.936;2022-08-01T05:27:52;99874.72;;;21.86;100.00
28310;BME280;15571;50.974;13.936;2022-08-01T05:30:54;99876.84;;;21.96;100.00
28310;BME280;15571;50.974;13.936;2022-08-01T05:33:58;99871.50;;;21.96;100.00
28310;BME280;15571;50.974;13.936;2022-08-01T05:37:02;99875.59;;;21.87;100.00
28310;BME280;15571;50.974;13.936;2022-08-01T05:40:11;99878.16;;;21.88;100.00
28310;BME280;15571;50.974;13.936;2022-08-01T05:43:13;99879.59;;;21.94;100.00
28310;BME280;15571;50.974;13.936;2022-08-01T05:46:16;99878.38;;;22.00;100.00
28310;BME280;15571;50.974;13.936;2022-08-01T05:49:19;99868.50;;;22.02;100.00
28310;BME280;15571;50.974;13.936;2022-08-01T05:52:22;99877.06;;;22.07;100.00
28310;BME280;15571;50.974;13.936;2022-08-01T05:55:27;99874.22;;;22.10;100.00
28310;BME280;15571;50.974;13.936;2022-08-01T05:58:30;99879.69;;;22.23;100.00
28310;BME280;15571;50.974;13.936;2022-08-01T06:01:34;99881.91;;;22.31;100.00
28310;BME280;15571;50.974;13.936;2022-08-01T06:04:37;99884.03;;;22.40;100.00
28310;BME280;15571;50.974;13.936;2022-08-01T06:11:01;99886.91;;;22.51;100.00
28310;BME280;15571;50.974;13.936;2022-08-01T06:14:03;99896.47;;;22.70;100.00
28310;BME280;15571;50.974;13.936;2022-08-01T06:17:06;99900.25;;;22.66;100.00
28310;BME280;15571;50.974;13.936;2022-08-01T06:20:10;99904.47;;;22.70;100.00
28310;BME280;15571;50.974;13.936;2022-08-01T06:23:13;99897.91;;;22.76;100.00
28310;BME280;15571;50.974;13.936;2022-08-01T06:26:19;99906.38;;;22.68;100.00
28310;BME280;15571;50.974;13.936;2022-08-01T06:29:24;99904.47;;;22.70;100.00
28310;BME280;15571;50.974;13.936;2022-08-01T06:32:29;99904.75;;;22.65;100.00
28310;BME280;15571;50.974;13.936;2022-08-01T06:35:34;99912.09;;;22.62;100.00
28310;BME280;15571;50.974;13.936;2022-08-01T06:38:37;99903.50;;;22.57;100.00
28310;BME280;15571;50.974;13.936;2022-08-01T06:41:41;99913.81;;;22.63;100.00
28310;BME280;15571;50.974;13.936;2022-08-01T06:44:47;99905.69;;;22.64;100.00
28310;BME280;15571;50.974;13.936;2022-08-01T06:47:53;99917.97;;;22.52;100.00
28310;BME280;15571;50.974;13.936;2022-08-01T06:50:56;99913.41;;;22.69;100.00
28310;BME280;15571;50.974;13.936;2022-08-01T06:54:10;99908.09;;;22.69;100.00
28310;BME280;15571;50.974;13.936;2022-08-01T06:57:18;99922.94;;;22.73;100.00
28310;BME280;15571;50.974;13.936;2022-08-01T07:00:22;99916.66;;;22.74;100.00
28310;BME280;15571;50.974;13.936;2022-08-01T07:03:25;99926.94;;;22.66;100.00
28310;BME280;15571;50.974;13.936;2022-08-01T07:06:28;99925.41;;;22.76;100.00
28310;BME280;15571;50.974;13.936;2022-08-01T07:09:31;99928.88;;;22.78;100.00
28310;BME280;15571;50.974;13.936;2022-08-01T07:12:37;99920.25;;;22.73;100.00
28310;BME280;15571;50.974;13.936;2022-08-01T07:15:42;99934.19;;;22.78;100.00
28310;BME280;15571;50.974;13.936;2022-08-01T07:18:45;99929.44;;;22.69;100.00
28310;BME280;15571;50.974;13.936;2022-08-01T07:21:49;99931.88;;;22.58;100.00
28310;BME280;15571;50.974;13.936;2022-08-01T07:24:51;99935.50;;;22.57;100.00
28310;BME280;15571;50.974;13.936;2022-08-01T07:27:58;99947.88;;;22.58;100.00
28310;BME280;15571;50.974;13.936;2022-08-01T07:31:02;99950.53;;;22.43;100.00
28310;BME280;15571;50.974;13.936;2022-08-01T07:34:08;99962.91;;;22.44;100.00
28310;BME280;15571;50.974;13.936;2022-08-01T07:37:12;99969.66;;;22.19;100.00
28310;BME280;15571;50.974;13.936;2022-08-01T07:40:16;99972.97;;;21.92;100.00
28310;BME280;15571;50.974;13.936;2022-08-01T07:43:20;99968.16;;;21.67;100.00
28310;BME280;15571;50.974;13.936;2022-08-01T07:46:23;99971.03;;;21.46;100.00
28310;BME280;15571;50.974;13.936;2022-08-01T07:49:27;99975.16;;;21.52;100.00
28310;BME280;15571;50.974;13.936;2022-08-01T07:52:30;99982.53;;;21.47;100.00
28310;BME280;15571;50.974;13.936;2022-08-01T07:55:32;99973.78;;;21.45;100.00
28310;BME280;15571;50.974;13.936;2022-08-01T07:58:37;99982.03;;;21.56;100.00
28310;BME280;15571;50.974;13.936;2022-08-01T08:01:40;99984.41;;;21.63;100.00
28310;BME280;15571;50.974;13.936;2022-08-01T08:04:43;99984.97;;;21.68;100.00
28310;BME280;15571;50.974;13.936;2022-08-01T08:07:46;99979.50;;;21.71;100.00
28310;BME280;15571;50.974;13.936;2022-08-01T08:10:49;99977.94;;;21.83;100.00
28310;BME280;15571;50.974;13.936;2022-08-01T08:13:54;99975.63;;;21.76;100.00
28310;BME280;15571;50.974;13.936;2022-08-01T08:16:56;99973.13;;;21.89;100.00
28310;BME280;15571;50.974;13.936;2022-08-01T08:19:59;99969.16;;;21.97;100.00
28310;BME280;15571;50.974;13.936;2022-08-01T08:23:03;99972.88;;;22.24;100.00
28310;BME280;15571;50.974;13.936;2022-08-01T08:26:26;99972.22;;;22.21;100.00
28310;BME280;15571;50.974;13.936;2022-08-01T08:29:31;99968.84;;;22.64;100.00
28310;BME280;15571;50.974;13.936;2022-08-01T08:32:34;99981.34;;;22.78;100.00
28310;BME280;15571;50.974;13.936;2022-08-01T08:35:41;99968.06;;;23.07;100.00
28310;BME280;15571;50.974;13.936;2022-08-01T08:38:45;99976.19;;;23.20;100.00
28310;BME280;15571;50.974;13.936;2022-08-01T08:41:49;99977.53;;;23.27;100.00
28310;BME280;15571;50.974;13.936;2022-08-01T08:44:53;99963.00;;;23.45;100.00
28310;BME280;15571;50.974;13.936;2022-08-01T08:47:56;99972.19;;;23.27;100.00
28310;BME280;15571;50.974;13.936;2022-08-01T08:51:00;99970.25;;;23.58;100.00
28310;BME280;15571;50.974;13.936;2022-08-01T08:54:04;99976.50;;;23.71;100.00
28310;BME280;15571;50.974;13.936;2022-08-01T08:57:08;99974.59;;;23.73;100.00
28310;BME280;15571;50.974;13.936;2022-08-01T09:00:15;99977.44;;;23.85;100.00
28310;BME280;15571;50.974;13.936;2022-08-01T09:03:18;99977.88;;;23.91;100.00
28310;BME280;15571;50.974;13.936;2022-08-01T09:06:20;99978.00;;;23.90;100.00
28310;BME280;15571;50.974;13.936;2022-08-01T09:09:24;99977.63;;;23.82;100.00
28310;BME280;15571;50.974;13.936;2022-08-01T09:12:28;99975.41;;;23.61;100.00
28310;BME280;15571;50.974;13.936;2022-08-01T09:15:40;99982.47;;;23.47;100.00
28310;BME280;15571;50.974;13.936;2022-08-01T09:18:42;99984.28;;;23.33;100.00
28310;BME280;15571;50.974;13.936;2022-08-01T09:21:56;99979.13;;;23.15;100.00
28310;BME280;15571;50.974;13.936;2022-08-01T09:25:01;99980.75;;;23.32;100.00
28310;BME280;15571;50.974;13.936;2022-08-01T09:28:06;99986.28;;;23.43;100.00
28310;BME280;15571;50.974;13.936;2022-08-01T09:31:12;99966.25;;;23.51;100.00
28310;BME280;15571;50.974;13.936;2022-08-01T09:34:16;99972.50;;;23.78;100.00
28310;BME280;15571;50.974;13.936;2022-08-01T09:37:30;99969.09;;;24.04;100.00
28310;BME280;15571;50.974;13.936;2022-08-01T09:40:44;99976.94;;;23.92;100.00
28310;BME280;15571;50.974;13.936;2022-08-01T09:43:53;99973.56;;;24.03;100.00
28310;BME280;15571;50.974;13.936;2022-08-01T09:47:08;99977.19;;;24.30;100.00
28310;BME280;15571;50.974;13.936;2022-08-01T09:50:13;99973.44;;;24.32;100.00
28310;BME280;15571;50.974;13.936;2022-08-01T09:53:16;99971.19;;;24.26;100.00
28310;BME280;15571;50.974;13.936;2022-08-01T09:56:21;99970.94;;;24.16;100.00
28310;BME280;15571;50.974;13.936;2022-08-01T09:59:34;99959.00;;;24.35;100.00
28310;BME280;15571;50.974;13.936;2022-08-01T10:02:40;99956.72;;;24.56;100.00
28310;BME280;15571;50.974;13.936;2022-08-01T10:05:42;99954.72;;;24.73;100.00
28310;BME280;15571;50.974;13.936;2022-08-01T10:08:46;99948.84;;;24.80;100.00
28310;BME280;15571;50.974;13.936;2022-08-01T10:11:49;99952.56;;;25.04;100.00
28310;BME280;15571;50.974;13.936;2022-08-01T10:19:27;99938.88;;;25.58;100.00
28310;BME280;15571;50.974;13.936;2022-08-01T10:22:34;99939.63;;;25.60;100.00
28310;BME280;15571;50.974;13.936;2022-08-01T10:25:41;99948.53;;;25.61;100.00
28310;BME280;15571;50.974;13.936;2022-08-01T10:28:49;99929.47;;;25.53;100.00
28310;BME280;15571;50.974;13.936;2022-08-01T10:31:54;99943.81;;;25.64;100.00
28310;BME280;15571;50.974;13.936;2022-08-01T10:35:06;99936.94;;;25.60;100.00
28310;BME280;15571;50.974;13.936;2022-08-01T10:38:12;99927.53;;;25.79;100.00
28310;BME280;15571;50.974;13.936;2022-08-01T10:41:18;99929.38;;;25.78;100.00
28310;BME280;15571;50.974;13.936;2022-08-01T10:44:24;99931.88;;;25.69;100.00
28310;BME280;15571;50.974;13.936;2022-08-01T10:47:42;99932.84;;;25.68;100.00
28310;BME280;15571;50.974;13.936;2022-08-01T10:50:52;99936.47;;;25.79;100.00
28310;BME280;15571;50.974;13.936;2022-08-01T10:53:58;99917.69;;;26.04;100.00
28310;BME280;15571;50.974;13.936;2022-08-01T11:00:31;99923.69;;;26.43;100.00
28310;BME280;15571;50.974;13.936;2022-08-01T11:03:56;99936.28;;;26.18;100.00
28310;BME280;15571;50.974;13.936;2022-08-01T11:07:06;99953.75;;;26.24;100.00
28310;BME280;15571;50.974;13.936;2022-08-01T11:10:19;99951.25;;;25.35;100.00
28310;BME280;15571;50.974;13.936;2022-08-01T11:14:00;99957.38;;;24.73;100.00
28310;BME280;15571;50.974;13.936;2022-08-01T11:17:32;99953.66;;;24.88;100.00
28310;BME280;15571;50.974;13.936;2022-08-01T11:20:37;99965.22;;;24.89;100.00
28310;BME280;15571;50.974;13.936;2022-08-01T11:24:02;99965.22;;;24.76;100.00
28310;BME280;15571;50.974;13.936;2022-08-01T11:27:17;99952.91;;;24.86;100.00
28310;BME280;15571;50.974;13.936;2022-08-01T11:30:25;99959.03;;;24.88;100.00
28310;BME280;15571;50.974;13.936;2022-08-01T11:33:59;99958.25;;;24.99;100.00
28310;BME280;15571;50.974;13.936;2022-08-01T11:37:23;99951.81;;;25.01;100.00
28310;BME280;15571;50.974;13.936;2022-08-01T11:40:40;99947.34;;;25.02;100.00
28310;BME280;15571;50.974;13.936;2022-08-01T11:43:55;99949.25;;;25.13;100.00
28310;BME280;15571;50.974;13.936;2022-08-01T11:47:04;99955.50;;;25.38;100.00
28310;BME280;15571;50.974;13.936;2022-08-01T11:50:34;99946.44;;;25.27;100.00
28310;BME280;15571;50.974;13.936;2022-08-01T11:53:47;99948.81;;;25.32;100.00
28310;BME280;15571;50.974;13.936;2022-08-01T11:56:56;99944.19;;;25.47;100.00
28310;BME280;15571;50.974;13.936;2022-08-01T12:00:03;99947.16;;;25.55;100.00
28310;BME280;15571;50.974;13.936;2022-08-01T12:03:22;99934.63;;;25.80;100.00
28310;BME280;15571;50.974;13.936;2022-08-01T12:06:32;99938.69;;;26.10;100.00
28310;BME280;15571;50.974;13.936;2022-08-01T12:09:38;99938.41;;;26.26;100.00
28310;BME280;15571;50.974;13.936;2022-08-01T12:12:45;99936.13;;;26.08;100.00
28310;BME280;15571;50.974;13.936;2022-08-01T12:15:50;99939.44;;;26.12;100.00
28310;BME280;15571;50.974;13.936;2022-08-01T12:18:56;99944.94;;;25.98;100.00
28310;BME280;15571;50.974;13.936;2022-08-01T12:22:07;99967.53;;;25.19;100.00
28310;BME280;15571;50.974;13.936;2022-08-01T12:25:13;99977.31;;;24.28;100.00
28310;BME280;15571;50.974;13.936;2022-08-01T12:28:18;99974.28;;;23.51;100.00
28310;BME280;15571;50.974;13.936;2022-08-01T12:31:32;99978.00;;;23.19;100.00
28310;BME280;15571;50.974;13.936;2022-08-01T12:34:36;99985.31;;;23.15;100.00
28310;BME280;15571;50.974;13.936;2022-08-01T12:37:44;99987.03;;;23.02;100.00
28310;BME280;15571;50.974;13.936;2022-08-01T12:40:47;99987.19;;;23.13;100.00
28310;BME280;15571;50.974;13.936;2022-08-01T12:43:58;99994.88;;;23.20;100.00
28310;BME280;15571;50.974;13.936;2022-08-01T12:47:04;99981.41;;;23.50;100.00
28310;BME280;15571;50.974;13.936;2022-08-01T12:50:15;99972.34;;;23.53;100.00
28310;BME280;15571;50.974;13.936;2022-08-01T12:53:24;99970.59;;;23.81;100.00
28310;BME280;15571;50.974;13.936;2022-08-01T12:56:32;99968.38;;;24.15;100.00
28310;BME280;15571;50.974;13.936;2022-08-01T12:59:46;99967.16;;;24.46;100.00
28310;BME280;15571;50.974;13.936;2022-08-01T13:03:00;99954.09;;;24.42;100.00
28310;BME280;15571;50.974;13.936;2022-08-01T13:06:10;99964.41;;;24.61;100.00
28310;BME280;15571;50.974;13.936;2022-08-01T13:09:16;99961.69;;;24.88;100.00
28310;BME280;15571;50.974;13.936;2022-08-01T13:12:21;99968.31;;;25.08;100.00
28310;BME280;15571;50.974;13.936;2022-08-01T13:15:29;99962.09;;;25.21;100.00
28310;BME280;15571;50.974;13.936;2022-08-01T13:18:37;99955.13;;;25.31;100.00
28310;BME280;15571;50.974;13.936;2022-08-01T13:21:57;99965.28;;;25.52;100.00
28310;BME280;15571;50.974;13.936;2022-08-01T13:25:11;99955.28;;;25.67;100.00
28310;BME280;15571;50.974;13.936;2022-08-01T13:28:23;99954.88;;;25.84;100.00
28310;BME280;15571;50.974;13.936;2022-08-01T13:31:38;99963.50;;;26.01;100.00
28310;BME280;15571;50.974;13.936;2022-08-01T13:35:00;99958.75;;;25.80;100.00
28310;BME280;15571;50.974;13.936;2022-08-01T13:38:16;99948.25;;;26.01;100.00
28310;BME280;15571;50.974;13.936;2022-08-01T13:41:54;99943.00;;;26.00;100.00
28310;BME280;15571;50.974;13.936;2022-08-01T13:45:07;99941.91;;;26.15;100.00
28310;BME280;15571;50.974;13.936;2022-08-01T13:48:16;99940.78;;;26.42;100.00
28310;BME280;15571;50.974;13.936;2022-08-01T13:51:22;99930.53;;;26.47;100.00
28310;BME280;15571;50.974;13.936;2022-08-01T13:54:29;99934.47;;;26.54;100.00
28310;BME280;15571;50.974;13.936;2022-08-01T13:57:42;99937.50;;;26.61;100.00
28310;BME280;15571;50.974;13.936;2022-08-01T14:00:48;99930.34;;;26.73;100.00
28310;BME280;15571;50.974;13.936;2022-08-01T14:03:54;99934.47;;;26.66;100.00
28310;BME280;15571;50.974;13.936;2022-08-01T14:06:57;99942.88;;;26.61;100.00
28310;BME280;15571;50.974;13.936;2022-08-01T14:10:06;99946.69;;;26.70;100.00
28310;BME280;15571;50.974;13.936;2022-08-01T14:13:09;99942.03;;;26.61;100.00
28310;BME280;15571;50.974;13.936;2022-08-01T14:16:12;99953.13;;;26.56;100.00
28310;BME280;15571;50.974;13.936;2022-08-01T14:19:18;99936.75;;;26.48;100.00
28310;BME280;15571;50.974;13.936;2022-08-01T14:22:22;99949.81;;;26.52;100.00
28310;BME280;15571;50.974;13.936;2022-08-01T14:25:25;99940.34;;;26.71;100.00
28310;BME280;15571;50.974;13.936;2022-08-01T14:28:27;99954.28;;;26.87;100.00
28310;BME280;15571;50.974;13.936;2022-08-01T14:31:34;99950.88;;;26.85;100.00
28310;BME280;15571;50.974;13.936;2022-08-01T14:34:38;99960.91;;;26.83;100.00
28310;BME280;15571;50.974;13.936;2022-08-01T14:37:41;99950.34;;;26.69;100.00
28310;BME280;15571;50.974;13.936;2022-08-01T14:40:45;99973.69;;;26.80;100.00
28310;BME280;15571;50.974;13.936;2022-08-01T14:43:52;99970.41;;;26.87;100.00
28310;BME280;15571;50.974;13.936;2022-08-01T14:46:59;99969.69;;;26.97;100.00
28310;BME280;15571;50.974;13.936;2022-08-01T14:50:14;99982.16;;;26.98;100.00
28310;BME280;15571;50.974;13.936;2022-08-01T14:53:17;99972.16;;;27.11;100.00
28310;BME280;15571;50.974;13.936;2022-08-01T14:56:20;99981.19;;;27.10;100.00
28310;BME280;15571;50.974;13.936;2022-08-01T14:59:23;99976.19;;;27.17;100.00
28310;BME280;15571;50.974;13.936;2022-08-01T15:02:27;99968.59;;;26.99;100.00
28310;BME280;15571;50.974;13.936;2022-08-01T15:05:33;99960.88;;;26.95;100.00
28310;BME280;15571;50.974;13.936;2022-08-01T15:08:37;99962.13;;;27.02;100.00
28310;BME280;15571;50.974;13.936;2022-08-01T15:11:43;99972.16;;;27.11;100.00
28310;BME280;15571;50.974;13.936;2022-08-01T15:14:49;99978.97;;;27.04;99.26
28310;BME280;15571;50.974;13.936;2022-08-01T15:17:54;99980.59;;;27.18;97.46
28310;BME280;15571;50.974;13.936;2022-08-01T15:21:02;99978.63;;;26.97;100.00
28310;BME280;15571;50.974;13.936;2022-08-01T15:24:07;99991.41;;;26.82;100.00
28310;BME280;15571;50.974;13.936;2022-08-01T15:27:14;99988.25;;;26.88;100.00
28310;BME280;15571;50.974;13.936;2022-08-01T15:30:18;99986.44;;;26.65;100.00
28310;BME280;15571;50.974;13.936;2022-08-01T15:33:23;99987.56;;;26.73;100.00
28310;BME280;15571;50.974;13.936;2022-08-01T15:36:30;99987.97;;;26.80;100.00
28310;BME280;15571;50.974;13.936;2022-08-01T15:39:38;99993.84;;;26.85;100.00
28310;BME280;15571;50.974;13.936;2022-08-01T15:42:47;100000.69;;;26.90;100.00
28310;BME280;15571;50.974;13.936;2022-08-01T15:45:55;99988.47;;;26.85;100.00
28310;BME280;15571;50.974;13.936;2022-08-01T15:49:05;99989.22;;;26.87;100.00
28310;BME280;15571;50.974;13.936;2022-08-01T15:52:15;99990.66;;;26.80;100.00
28310;BME280;15571;50.974;13.936;2022-08-01T15:55:24;99990.91;;;26.77;100.00
28310;BME280;15571;50.974;13.936;2022-08-01T15:58:30;99981.88;;;26.78;100.00
28310;BME280;15571;50.974;13.936;2022-08-01T16:01:42;99991.91;;;26.99;100.00
28310;BME280;15571;50.974;13.936;2022-08-01T16:04:47;99997.53;;;27.07;95.25
28310;BME280;15571;50.974;13.936;2022-08-01T16:07:56;99984.09;;;27.07;96.52
28310;BME280;15571;50.974;13.936;2022-08-01T16:11:05;99990.81;;;27.13;95.81
28310;BME280;15571;50.974;13.936;2022-08-01T16:14:16;99990.00;;;27.12;95.44
28310;BME280;15571;50.974;13.936;2022-08-01T16:17:25;99992.69;;;27.12;94.50
28310;BME280;15571;50.974;13.936;2022-08-01T16:20:40;99989.47;;;26.96;97.14
28310;BME280;15571;50.974;13.936;2022-08-01T16:23:57;99994.59;;;26.99;95.65
28310;BME280;15571;50.974;13.936;2022-08-01T16:27:09;99989.47;;;26.96;97.07